createdAt,value
2019-03-03T00:01:33.195Z,10.60
2019-03-03T00:04:02.309Z,8.63
2019-03-03T00:06:31.411Z,8.93
2019-03-03T00:09:00.525Z,7.33
2019-03-03T00:11:29.604Z,8.80
2019-03-03T00:13:58.718Z,6.17
2019-03-03T00:16:27.878Z,6.63
2019-03-03T00:18:56.956Z,6.90
2019-03-03T00:21:26.047Z,11.00
2019-03-03T00:23:55.139Z,6.10
2019-03-03T00:26:24.118Z,6.47
2019-03-03T00:28:53.255Z,7.43
2019-03-03T00:31:39.838Z,7.20
2019-03-03T00:34:08.985Z,5.27
2019-03-03T00:36:55.736Z,7.37
2019-03-03T00:39:35.932Z,5.53
2019-03-03T00:42:22.550Z,7.00
2019-03-03T00:45:01.460Z,7.83
2019-03-03T00:47:48.106Z,9.17
2019-03-03T00:50:25.277Z,9.37
2019-03-03T00:53:16.411Z,8.07
2019-03-03T00:56:03.695Z,8.13
2019-03-03T00:58:50.041Z,7.53
2019-03-03T01:01:56.412Z,7.70
2019-03-03T01:04:35.245Z,7.80
2019-03-03T01:07:35.007Z,6.20
2019-03-03T01:10:09.892Z,6.60
2019-03-03T01:13:02.219Z,10.87
2019-03-03T01:15:41.368Z,9.80
2019-03-03T01:18:21.172Z,11.00
2019-03-03T01:21:04.285Z,12.27
2019-03-03T01:23:49.044Z,8.57
2019-03-03T01:26:18.044Z,14.13
2019-03-03T01:28:47.138Z,9.37
2019-03-03T01:31:16.209Z,11.20
2019-03-03T01:33:45.300Z,10.63
2019-03-03T01:36:14.372Z,11.50
2019-03-03T01:38:43.464Z,12.83
2019-03-03T01:41:12.450Z,11.80
2019-03-03T01:43:41.537Z,11.27
2019-03-03T01:46:10.690Z,11.73
2019-03-03T01:48:39.846Z,15.67
2019-03-03T01:51:08.913Z,9.13
2019-03-03T01:53:38.045Z,13.47
2019-03-03T01:56:07.123Z,13.83
2019-03-03T01:58:36.207Z,13.07
2019-03-03T02:01:05.469Z,15.23
2019-03-03T02:03:35.249Z,14.13
2019-03-03T02:06:04.989Z,13.63
2019-03-03T02:08:34.211Z,15.63
2019-03-03T02:11:03.387Z,14.10
2019-03-03T02:13:32.435Z,13.23
2019-03-03T02:16:01.708Z,14.73
2019-03-03T02:18:30.753Z,12.67
2019-03-03T02:20:59.869Z,13.97
2019-03-03T02:23:28.955Z,12.70
2019-03-03T02:25:58.035Z,13.03
2019-03-03T02:28:27.106Z,13.77
2019-03-03T02:30:56.229Z,11.90
2019-03-03T02:33:25.377Z,11.40
2019-03-03T02:35:54.480Z,13.73
2019-03-03T02:38:23.477Z,14.63
2019-03-03T02:40:52.576Z,11.80
2019-03-03T02:43:21.634Z,13.50
2019-03-03T02:45:50.837Z,10.00
2019-03-03T02:48:19.908Z,12.97
2019-03-03T02:50:49.025Z,14.07
2019-03-03T02:53:18.093Z,12.90
2019-03-03T02:55:47.189Z,13.47
2019-03-03T02:58:16.211Z,15.60
2019-03-03T03:01:04.400Z,12.60
2019-03-03T03:03:33.482Z,12.10
2019-03-03T03:06:24.782Z,12.83
2019-03-03T03:09:14.894Z,15.17
2019-03-03T03:12:01.910Z,13.07
2019-03-03T03:14:48.749Z,13.50
2019-03-03T03:17:27.401Z,13.13
2019-03-03T03:20:07.985Z,12.77
2019-03-03T03:22:54.514Z,10.77
2019-03-03T03:25:32.802Z,9.67
2019-03-03T03:28:23.952Z,11.40
2019-03-03T03:31:12.106Z,11.27
2019-03-03T03:34:00.218Z,12.73
2019-03-03T03:36:44.802Z,10.17
2019-03-03T03:39:35.585Z,10.23
2019-03-03T03:42:13.128Z,10.97
2019-03-03T03:44:50.809Z,10.27
2019-03-03T03:47:51.089Z,12.43
2019-03-03T03:50:45.036Z,12.10
2019-03-03T03:53:45.700Z,13.23
2019-03-03T03:56:31.586Z,8.97
2019-03-03T03:59:28.474Z,13.17
2019-03-03T04:02:15.002Z,9.60
2019-03-03T04:05:08.947Z,9.57
2019-03-03T04:07:43.977Z,7.40
2019-03-03T04:10:29.004Z,7.03
2019-03-03T04:13:17.140Z,8.27
2019-03-03T04:15:59.542Z,10.97
2019-03-03T04:18:44.085Z,8.87
2019-03-03T04:21:21.610Z,8.50
2019-03-03T04:23:59.565Z,11.13
2019-03-03T04:26:53.083Z,7.40
2019-03-03T04:29:41.229Z,11.23
2019-03-03T04:32:25.589Z,8.80
2019-03-03T04:35:13.712Z,10.10
2019-03-03T04:38:00.399Z,10.80
2019-03-03T04:40:34.841Z,12.50
2019-03-03T04:43:12.759Z,9.30
2019-03-03T04:45:51.064Z,8.73
2019-03-03T04:48:45.083Z,12.00
2019-03-03T04:51:23.103Z,11.27
2019-03-03T04:54:11.257Z,12.17
2019-03-03T04:57:01.739Z,9.73
2019-03-03T04:59:38.783Z,13.97
2019-03-03T05:02:18.011Z,9.57
2019-03-03T05:05:04.945Z,9.20
2019-03-03T05:07:44.007Z,8.87
2019-03-03T05:10:35.159Z,10.23
2019-03-03T05:13:13.632Z,10.80
2019-03-03T05:16:04.599Z,12.90
2019-03-03T05:19:01.915Z,10.33
2019-03-03T05:21:30.980Z,12.13
2019-03-03T05:24:00.055Z,9.07
2019-03-03T05:26:29.145Z,12.83
2019-03-03T05:28:58.230Z,7.90
2019-03-03T05:31:29.310Z,13.20
2019-03-03T05:33:58.091Z,9.40
2019-03-03T05:36:27.160Z,10.43
2019-03-03T05:38:56.250Z,11.27
2019-03-03T05:41:25.334Z,9.30
2019-03-03T05:43:54.443Z,14.93
2019-03-03T05:46:23.500Z,11.33
2019-03-03T05:48:52.604Z,10.97
2019-03-03T05:51:21.662Z,11.63
2019-03-03T05:53:50.757Z,13.20
2019-03-03T05:56:19.824Z,12.17
2019-03-03T05:58:48.944Z,11.83
2019-03-03T06:01:18.025Z,14.80
2019-03-03T06:03:47.108Z,13.17
2019-03-03T06:06:16.178Z,14.17
2019-03-03T06:08:45.282Z,14.63
2019-03-03T06:11:14.344Z,12.63
2019-03-03T06:13:43.371Z,12.23
2019-03-03T06:16:12.462Z,11.57
2019-03-03T06:18:41.454Z,10.83
2019-03-03T06:21:10.519Z,12.83
2019-03-03T06:23:39.602Z,12.90
2019-03-03T06:26:08.688Z,12.87
2019-03-03T06:28:37.828Z,14.60
2019-03-03T06:31:06.905Z,11.93
2019-03-03T06:33:35.919Z,6.73
2019-03-03T06:36:04.991Z,9.90
2019-03-03T06:38:33.957Z,10.13
2019-03-03T06:41:03.069Z,13.20
2019-03-03T06:43:32.137Z,12.57
2019-03-03T06:46:01.235Z,12.23
2019-03-03T06:48:30.202Z,9.43
2019-03-03T06:50:59.306Z,13.47
2019-03-03T06:53:28.417Z,11.47
2019-03-03T06:55:57.505Z,13.87
2019-03-03T06:58:26.515Z,9.10
2019-03-03T07:00:55.654Z,10.43
2019-03-03T07:03:24.715Z,9.23
2019-03-03T07:05:53.835Z,7.57
2019-03-03T07:08:22.901Z,12.13
2019-03-03T07:10:51.993Z,11.03
2019-03-03T07:13:21.065Z,9.60
2019-03-03T07:15:50.160Z,8.43
2019-03-03T07:18:19.236Z,17.10
2019-03-03T07:20:48.231Z,9.20
2019-03-03T07:23:17.308Z,15.07
2019-03-03T07:25:46.491Z,12.70
2019-03-03T07:28:17.244Z,9.63
2019-03-03T07:30:46.456Z,10.43
2019-03-03T07:33:17.239Z,12.57
2019-03-03T07:35:46.336Z,12.00
2019-03-03T07:38:15.422Z,12.47
2019-03-03T07:40:44.504Z,12.33
2019-03-03T07:43:13.573Z,12.07
2019-03-03T07:45:42.667Z,13.33
2019-03-03T07:48:11.755Z,11.30
2019-03-03T07:50:40.923Z,10.67
2019-03-03T07:53:09.991Z,14.77
2019-03-03T07:55:39.082Z,11.27
2019-03-03T07:58:08.369Z,14.30
2019-03-03T08:00:37.471Z,15.73
2019-03-03T08:03:06.543Z,8.70
2019-03-03T08:05:35.634Z,10.87
2019-03-03T08:08:04.684Z,12.17
2019-03-03T08:10:33.810Z,11.20
2019-03-03T08:13:09.219Z,9.20
2019-03-03T08:15:33.680Z,13.20
2019-03-03T08:18:02.743Z,10.77
2019-03-03T08:20:31.854Z,10.00
2019-03-03T08:23:00.925Z,10.30
2019-03-03T08:25:30.013Z,9.47
2019-03-03T08:27:59.052Z,15.03
2019-03-03T08:30:28.162Z,12.23
2019-03-03T08:32:57.223Z,11.97
2019-03-03T08:35:26.572Z,12.80
2019-03-03T08:37:55.633Z,11.43
2019-03-03T08:40:24.739Z,13.87
2019-03-03T08:43:00.687Z,16.20
2019-03-03T08:45:42.287Z,10.60
2019-03-03T08:48:15.373Z,13.47
2019-03-03T08:50:52.616Z,12.67
2019-03-03T08:53:28.578Z,9.10
2019-03-03T08:56:12.730Z,16.37
2019-03-03T08:58:54.532Z,11.03
2019-03-03T09:01:41.048Z,9.03
2019-03-03T09:04:32.203Z,12.50
2019-03-03T09:07:18.675Z,7.97
2019-03-03T09:10:09.563Z,10.23
2019-03-03T09:13:09.589Z,11.47
2019-03-03T09:15:57.701Z,9.87
2019-03-03T09:18:57.725Z,11.27
2019-03-03T09:21:40.718Z,10.83
2019-03-03T09:24:20.724Z,12.67
2019-03-03T09:27:07.311Z,10.97
2019-03-03T09:29:58.573Z,11.93
2019-03-03T09:32:49.751Z,8.23
2019-03-03T09:35:50.028Z,10.77
2019-03-03T09:38:25.485Z,9.27
2019-03-03T09:41:15.769Z,12.33
2019-03-03T09:43:53.469Z,9.37
2019-03-03T09:46:29.017Z,13.60
2019-03-03T09:49:17.178Z,8.93
2019-03-03T09:52:14.057Z,9.73
2019-03-03T09:54:50.431Z,9.77
2019-03-03T09:57:42.645Z,12.33
2019-03-03T10:00:34.692Z,10.30
2019-03-03T10:03:21.481Z,11.67
2019-03-03T10:06:18.704Z,12.03
2019-03-03T10:08:58.467Z,10.47
2019-03-03T10:11:46.650Z,8.83
2019-03-03T10:14:33.619Z,5.97
2019-03-03T10:17:08.638Z,12.07
2019-03-03T10:19:59.517Z,9.10
2019-03-03T10:22:37.953Z,8.93
2019-03-03T10:25:33.961Z,7.33
2019-03-03T10:28:27.997Z,10.10
2019-03-03T10:31:14.596Z,6.80
2019-03-03T10:34:01.335Z,8.13
2019-03-03T10:36:40.694Z,5.33
2019-03-03T10:39:41.046Z,7.37
2019-03-03T10:42:38.058Z,6.23
2019-03-03T10:45:26.142Z,7.17
2019-03-03T10:48:18.788Z,7.10
2019-03-03T10:50:59.672Z,9.00
2019-03-03T10:53:47.623Z,6.33
2019-03-03T10:56:33.966Z,7.50
2019-03-03T10:59:18.625Z,6.10
2019-03-03T11:02:18.903Z,7.53
2019-03-03T11:05:07.022Z,12.50
2019-03-03T11:07:46.421Z,10.90
2019-03-03T11:10:40.408Z,14.77
2019-03-03T11:13:25.110Z,10.50
2019-03-03T11:16:19.012Z,7.13
2019-03-03T11:19:05.739Z,5.90
2019-03-03T11:21:56.970Z,5.63
2019-03-03T11:24:41.846Z,6.63
2019-03-03T11:27:41.921Z,5.83
2019-03-03T11:30:24.638Z,6.83
2019-03-03T11:33:01.908Z,8.33
2019-03-03T11:35:56.057Z,7.27
2019-03-03T11:38:39.642Z,7.47
2019-03-03T11:41:14.436Z,7.53
2019-03-03T11:43:54.327Z,6.87
2019-03-03T11:46:48.470Z,7.97
2019-03-03T11:49:36.669Z,6.43
2019-03-03T11:52:29.747Z,7.70
2019-03-03T11:55:16.540Z,6.83
2019-03-03T11:58:16.935Z,7.53
2019-03-03T12:00:55.670Z,6.87
2019-03-03T12:03:34.869Z,8.13
2019-03-03T12:06:12.467Z,7.03
2019-03-03T12:08:58.033Z,5.53
2019-03-03T12:11:39.315Z,7.13
2019-03-03T12:14:27.488Z,6.57
2019-03-03T12:17:15.616Z,10.30
2019-03-03T12:20:00.839Z,5.47
2019-03-03T12:22:38.694Z,6.43
2019-03-03T12:25:21.830Z,6.60
2019-03-03T12:28:08.684Z,4.90
2019-03-03T12:30:44.604Z,6.80
2019-03-03T12:33:35.981Z,8.43
2019-03-03T12:36:20.108Z,5.07
2019-03-03T12:39:06.893Z,4.60
2019-03-03T12:41:51.528Z,5.37
2019-03-03T12:44:35.555Z,4.90
2019-03-03T12:47:26.443Z,8.37
2019-03-03T12:50:17.391Z,8.40
2019-03-03T12:53:03.990Z,7.10
2019-03-03T12:55:54.913Z,9.60
2019-03-03T12:58:46.094Z,10.97
2019-03-03T13:01:29.313Z,5.50
2019-03-03T13:04:16.334Z,8.03
2019-03-03T13:06:53.192Z,9.97
2019-03-03T13:09:36.766Z,7.83
2019-03-03T13:12:12.862Z,5.60
2019-03-03T13:14:59.411Z,7.40
2019-03-03T13:17:34.892Z,5.40
2019-03-03T13:20:32.556Z,5.20
2019-03-03T13:23:15.651Z,5.57
2019-03-03T13:26:03.526Z,7.27
2019-03-03T13:29:03.796Z,8.97
2019-03-03T13:31:42.497Z,8.87
2019-03-03T13:34:29.004Z,15.27
2019-03-03T13:37:06.576Z,11.37
2019-03-03T13:39:53.454Z,12.13
2019-03-03T13:42:37.906Z,10.40
2019-03-03T13:45:09.518Z,13.47
2019-03-03T13:47:38.604Z,16.33
2019-03-03T13:50:11.210Z,11.10
2019-03-03T13:52:40.308Z,10.53
2019-03-03T13:55:10.508Z,21.77
2019-03-03T13:57:39.620Z,18.93
2019-03-03T14:00:10.379Z,15.47
2019-03-03T14:02:39.446Z,11.00
2019-03-03T14:05:08.931Z,7.63
2019-03-03T14:07:38.138Z,12.67
2019-03-03T14:10:08.699Z,8.03
2019-03-03T14:12:38.425Z,13.33
2019-03-03T14:15:09.591Z,7.87
2019-03-03T14:17:38.872Z,11.47
2019-03-03T14:20:12.030Z,9.60
2019-03-03T14:22:41.146Z,8.47
2019-03-03T14:25:10.770Z,6.60
2019-03-03T14:27:39.866Z,7.17
2019-03-03T14:30:11.907Z,7.87
2019-03-03T14:32:41.094Z,7.67
2019-03-03T14:35:11.075Z,7.77
2019-03-03T14:37:40.179Z,9.30
2019-03-03T14:40:10.581Z,7.40
2019-03-03T14:42:39.658Z,6.73
2019-03-03T14:45:10.163Z,7.40
2019-03-03T14:47:39.255Z,6.83
2019-03-03T14:50:10.161Z,7.10
2019-03-03T14:52:39.246Z,7.83
2019-03-03T14:55:10.639Z,11.50
2019-03-03T14:57:39.758Z,8.53
2019-03-03T15:00:24.248Z,9.23
2019-03-03T15:02:53.588Z,8.03
2019-03-03T15:05:22.724Z,6.83
2019-03-03T15:07:51.803Z,6.00
2019-03-03T15:10:20.976Z,9.87
2019-03-03T15:12:50.068Z,8.53
2019-03-03T15:15:20.024Z,7.13
2019-03-03T15:17:49.111Z,8.53
2019-03-03T15:20:18.231Z,6.40
2019-03-03T15:22:47.377Z,12.23
2019-03-03T15:25:16.579Z,9.83
2019-03-03T15:27:47.177Z,8.87
2019-03-03T15:30:18.236Z,5.60
2019-03-03T15:32:47.346Z,10.23
2019-03-03T15:35:16.482Z,5.50
2019-03-03T15:37:45.842Z,6.97
2019-03-03T15:40:15.934Z,9.23
2019-03-03T15:42:45.471Z,6.73
2019-03-03T15:45:17.416Z,7.20
2019-03-03T15:47:46.482Z,6.67
2019-03-03T15:50:16.459Z,9.73
2019-03-03T15:52:45.535Z,9.13
2019-03-03T15:55:14.690Z,7.83
2019-03-03T15:57:43.806Z,6.50
2019-03-03T16:00:18.723Z,9.10
2019-03-03T16:02:48.118Z,9.47
2019-03-03T16:05:17.271Z,9.00
2019-03-03T16:07:46.894Z,7.77
2019-03-03T16:10:16.307Z,9.10
2019-03-03T16:12:45.401Z,11.67
2019-03-03T16:15:15.453Z,7.37
2019-03-03T16:17:44.643Z,10.30
2019-03-03T16:20:15.695Z,6.30
2019-03-03T16:22:44.972Z,8.07
2019-03-03T16:25:14.486Z,10.10
2019-03-03T16:27:43.668Z,7.40
2019-03-03T16:30:17.976Z,7.13
2019-03-03T16:32:48.221Z,10.57
2019-03-03T16:35:17.519Z,12.30
2019-03-03T16:37:46.629Z,16.17
2019-03-03T16:40:17.795Z,20.63
2019-03-03T16:42:47.012Z,31.27
2019-03-03T16:45:16.394Z,38.30
2019-03-03T16:47:45.513Z,14.07
2019-03-03T16:50:16.875Z,11.30
2019-03-03T16:52:45.990Z,12.37
2019-03-03T16:55:15.261Z,11.03
2019-03-03T16:57:44.359Z,12.17
2019-03-03T17:00:15.591Z,7.23
2019-03-03T17:02:44.689Z,10.17
2019-03-03T17:05:14.618Z,6.07
2019-03-03T17:07:43.746Z,9.20
2019-03-03T17:10:13.009Z,7.60
2019-03-03T17:12:42.098Z,5.80
2019-03-03T17:15:16.255Z,6.23
2019-03-03T17:17:45.391Z,6.37
2019-03-03T17:20:14.483Z,10.00
2019-03-03T17:22:43.581Z,7.33
2019-03-03T17:25:14.816Z,8.47
2019-03-03T17:27:43.907Z,6.23
2019-03-03T17:30:17.807Z,5.20
2019-03-03T17:32:47.047Z,8.03
2019-03-03T17:35:16.228Z,7.20
2019-03-03T17:37:45.318Z,5.40
2019-03-03T17:40:18.992Z,8.33
2019-03-03T17:42:48.198Z,7.50
2019-03-03T17:45:18.686Z,4.67
2019-03-03T17:47:47.862Z,6.63
2019-03-03T17:50:17.782Z,5.63
2019-03-03T17:52:46.896Z,8.23
2019-03-03T17:55:16.441Z,8.40
2019-03-03T17:57:45.564Z,6.17
2019-03-03T18:00:17.676Z,7.20
2019-03-03T18:02:46.810Z,7.73
2019-03-03T18:05:17.412Z,9.23
2019-03-03T18:07:46.587Z,6.83
2019-03-03T18:10:15.782Z,8.50
2019-03-03T18:12:44.898Z,9.87
2019-03-03T18:15:14.039Z,6.83
2019-03-03T18:17:43.137Z,11.20
2019-03-03T18:20:12.826Z,7.60
2019-03-03T18:22:41.934Z,8.90
2019-03-03T18:25:12.193Z,9.20
2019-03-03T18:27:41.282Z,7.00
2019-03-03T18:30:18.567Z,10.77
2019-03-03T18:32:47.660Z,7.47
2019-03-03T18:35:16.750Z,8.33
2019-03-03T18:37:45.955Z,7.00
2019-03-03T18:40:16.850Z,9.33
2019-03-03T18:42:46.218Z,9.03
2019-03-03T18:45:15.535Z,7.23
2019-03-03T18:47:44.668Z,9.97
2019-03-03T18:50:15.238Z,9.20
2019-03-03T18:52:44.348Z,8.13
2019-03-03T18:55:13.421Z,9.33
2019-03-03T18:57:42.545Z,6.77
2019-03-03T19:00:16.917Z,6.20
2019-03-03T19:02:46.002Z,8.20
2019-03-03T19:05:15.088Z,5.77
2019-03-03T19:07:44.200Z,7.57
2019-03-03T19:10:14.667Z,8.43
2019-03-03T19:12:43.729Z,8.40
2019-03-03T19:15:14.754Z,6.33
2019-03-03T19:17:43.817Z,8.97
2019-03-03T19:20:13.655Z,7.07
2019-03-03T19:22:42.732Z,6.30
2019-03-03T19:25:12.503Z,6.00
2019-03-03T19:27:41.685Z,7.30
2019-03-03T19:30:14.006Z,9.33
2019-03-03T19:32:43.944Z,7.17
2019-03-03T19:35:13.320Z,7.47
2019-03-03T19:37:42.399Z,8.33
2019-03-03T19:40:11.681Z,8.77
2019-03-03T19:42:40.754Z,6.90
2019-03-03T19:45:13.853Z,7.70
2019-03-03T19:47:42.936Z,7.50
2019-03-03T19:50:12.568Z,7.07
2019-03-03T19:52:41.659Z,10.70
2019-03-03T19:55:11.517Z,7.17
2019-03-03T19:57:40.701Z,7.50
2019-03-03T20:00:13.755Z,8.70
2019-03-03T20:02:42.827Z,8.53
2019-03-03T20:05:12.121Z,9.83
2019-03-03T20:07:41.226Z,10.00
2019-03-03T20:10:10.527Z,9.80
2019-03-03T20:12:39.652Z,11.13
2019-03-03T20:15:09.546Z,7.37
2019-03-03T20:17:38.686Z,7.73
2019-03-03T20:20:10.261Z,9.77
2019-03-03T20:22:39.378Z,9.40
2019-03-03T20:25:08.831Z,9.53
2019-03-03T20:27:37.884Z,9.80
2019-03-03T20:30:09.378Z,9.93
2019-03-03T20:32:38.454Z,7.53
2019-03-03T20:35:09.543Z,10.63
2019-03-03T20:37:38.632Z,5.87
2019-03-03T20:40:09.766Z,8.23
2019-03-03T20:42:38.872Z,6.27
2019-03-03T20:45:09.880Z,9.27
2019-03-03T20:47:39.008Z,9.87
2019-03-03T20:50:10.643Z,10.53
2019-03-03T20:52:39.717Z,6.03
2019-03-03T20:55:10.620Z,10.00
2019-03-03T20:57:39.732Z,8.23
2019-03-03T21:00:15.001Z,9.17
2019-03-03T21:02:44.093Z,9.23
2019-03-03T21:05:13.232Z,9.80
2019-03-03T21:07:50.925Z,5.97
2019-03-03T21:10:15.212Z,5.67
2019-03-03T21:12:44.334Z,7.70
2019-03-03T21:15:13.587Z,6.67
2019-03-03T21:17:42.674Z,6.90
2019-03-03T21:20:13.416Z,9.30
2019-03-03T21:22:42.504Z,7.60
2019-03-03T21:25:11.937Z,8.60
2019-03-03T21:27:41.183Z,7.63
2019-03-03T21:30:15.661Z,6.50
2019-03-03T21:32:44.796Z,7.80
2019-03-03T21:35:14.019Z,9.87
2019-03-03T21:37:43.100Z,8.13
2019-03-03T21:40:13.397Z,7.93
2019-03-03T21:42:42.594Z,7.00
2019-03-03T21:45:13.122Z,7.67
2019-03-03T21:47:42.203Z,5.40
2019-03-03T21:50:13.440Z,7.00
2019-03-03T21:52:42.557Z,8.77
2019-03-03T21:55:15.480Z,7.20
2019-03-03T21:57:44.593Z,8.87
2019-03-03T22:00:24.668Z,6.77
2019-03-03T22:02:53.767Z,8.33
2019-03-03T22:05:22.874Z,6.07
2019-03-03T22:07:51.963Z,6.83
2019-03-03T22:10:29.452Z,5.63
2019-03-03T22:13:00.001Z,4.17
2019-03-03T22:15:29.150Z,4.23
2019-03-03T22:17:58.225Z,8.40
2019-03-03T22:20:27.325Z,5.13
2019-03-03T22:22:56.389Z,5.77
2019-03-03T22:25:25.593Z,5.57
2019-03-03T22:27:54.678Z,6.57
2019-03-03T22:30:24.416Z,8.17
2019-03-03T22:32:53.485Z,5.57
2019-03-03T22:35:22.673Z,7.20
2019-03-03T22:37:52.340Z,9.60
2019-03-03T22:40:21.487Z,5.97
2019-03-03T22:42:50.661Z,6.90
2019-03-03T22:45:19.769Z,6.33
2019-03-03T22:47:48.839Z,4.70
2019-03-03T22:50:17.953Z,5.70
2019-03-03T22:52:47.066Z,6.27
2019-03-03T22:55:16.676Z,4.50
2019-03-03T22:57:45.758Z,6.53
2019-03-03T23:00:26.906Z,7.17
2019-03-03T23:02:55.989Z,5.50
2019-03-03T23:05:34.502Z,7.63
2019-03-03T23:08:27.247Z,5.30
2019-03-03T23:11:31.225Z,6.57
2019-03-03T23:14:36.622Z,5.63
2019-03-03T23:17:33.364Z,6.17
2019-03-03T23:20:32.817Z,5.53
2019-03-03T23:23:28.490Z,6.53
2019-03-03T23:25:57.623Z,4.73
2019-03-03T23:28:26.699Z,6.13
2019-03-03T23:30:56.650Z,6.80
2019-03-03T23:33:25.728Z,5.77
2019-03-03T23:35:54.845Z,4.87
2019-03-03T23:38:23.930Z,4.83
2019-03-03T23:40:53.062Z,4.57
2019-03-03T23:43:22.125Z,5.80
2019-03-03T23:45:51.196Z,5.37
2019-03-03T23:48:20.253Z,5.60
2019-03-03T23:50:49.350Z,6.67
2019-03-03T23:53:18.502Z,5.27
2019-03-03T23:55:47.589Z,5.83
2019-03-03T23:58:16.663Z,5.00
